Map

Track Data

SID SEASON NUMBER BASIN SUBBASIN NAME ISO_TIME NATURE LAT LON WMO_WIND WMO_PRES WMO_AGENCY TRACK_TYPE DIST2LAND LANDFALL IFLAG USA_AGENCY USA_ATCF_ID USA_LAT USA_LON USA_RECORD USA_STATUS USA_WIND USA_PRES USA_SSHS USA_R34_NE USA_R34_SE USA_R34_SW USA_R34_NW USA_R50_NE USA_R50_SE USA_R50_SW USA_R50_NW USA_R64_NE USA_R64_SE USA_R64_SW USA_R64_NW USA_POCI USA_ROCI USA_RMW USA_EYE TOKYO_LAT TOKYO_LON TOKYO_GRADE TOKYO_WIND TOKYO_PRES TOKYO_R50_DIR TOKYO_R50_LONG TOKYO_R50_SHORT TOKYO_R30_DIR TOKYO_R30_LONG TOKYO_R30_SHORT TOKYO_LAND CMA_LAT CMA_LON CMA_CAT CMA_WIND CMA_PRES HKO_LAT HKO_LON HKO_CAT HKO_WIND HKO_PRES NEWDELHI_LAT NEWDELHI_LON NEWDELHI_GRADE NEWDELHI_WIND NEWDELHI_PRES NEWDELHI_CI NEWDELHI_DP NEWDELHI_POCI REUNION_LAT REUNION_LON REUNION_TYPE REUNION_WIND REUNION_PRES REUNION_TNUM REUNION_CI REUNION_RMW REUNION_R34_NE REUNION_R34_SE REUNION_R34_SW REUNION_R34_NW REUNION_R50_NE REUNION_R50_SE REUNION_R50_SW REUNION_R50_NW REUNION_R64_NE REUNION_R64_SE REUNION_R64_SW REUNION_R64_NW BOM_LAT BOM_LON BOM_TYPE BOM_WIND BOM_PRES BOM_TNUM BOM_CI BOM_RMW BOM_R34_NE BOM_R34_SE BOM_R34_SW BOM_R34_NW BOM_R50_NE BOM_R50_SE BOM_R50_SW BOM_R50_NW BOM_R64_NE BOM_R64_SE BOM_R64_SW BOM_R64_NW BOM_ROCI BOM_POCI BOM_EYE BOM_POS_METHOD BOM_PRES_METHOD NADI_LAT NADI_LON NADI_CAT NADI_WIND NADI_PRES WELLINGTON_LAT WELLINGTON_LON WELLINGTON_WIND WELLINGTON_PRES DS824_LAT DS824_LON DS824_STAGE DS824_WIND DS824_PRES TD9636_LAT TD9636_LON TD9636_STAGE TD9636_WIND TD9636_PRES TD9635_LAT TD9635_LON TD9635_WIND TD9635_PRES TD9635_ROCI NEUMANN_LAT NEUMANN_LON NEUMANN_CLASS NEUMANN_WIND NEUMANN_PRES MLC_LAT MLC_LON MLC_CLASS MLC_WIND MLC_PRES USA_GUST BOM_GUST BOM_GUST_PER REUNION_GUST REUNION_GUST_PER USA_SEAHGT USA_SEARAD_NE USA_SEARAD_SE USA_SEARAD_SW USA_SEARAD_NW STORM_SPEED STORM_DIR
1991285S08064 1992 78 SI MM NOT_NAMED 1991-10-11 12:00:00 TS -7.60000 63.6000 main 1537 1532 O___________O_ jtwc_sh SH021992 -7.60000 63.6000 15 -1 -7.60000 63.6000 TC 15 2 269
1991285S08064 1992 78 SI MM NOT_NAMED 1991-10-11 15:00:00 TS -7.60250 63.5000 main 1532 1528 P___________P_ SH021992 -7.60250 63.5000 15 -1 -7.60250 63.5000 TC 15 2 270
1991285S08064 1992 78 SI MM NOT_NAMED 1991-10-11 18:00:00 TS -7.60000 63.4000 main 1528 1523 O___________O_ jtwc_sh SH021992 -7.60000 63.4000 15 -1 -7.60000 63.4000 TC 15 2 273
1991285S08064 1992 78 SI MM NOT_NAMED 1991-10-11 21:00:00 TS -7.59250 63.3000 main 1523 1519 P___________P_ SH021992 -7.59250 63.3000 15 -1 -7.59250 63.3000 TC 15 2 270
1991285S08064 1992 78 SI MM NOT_NAMED 1991-10-12 00:00:00 TS -7.60000 63.2000 main 1519 1515 O___________O_ jtwc_sh SH021992 -7.60000 63.2000 15 -1 -7.60000 63.2000 TC 15 2 253
1991285S08064 1992 78 SI MM NOT_NAMED 1991-10-12 03:00:00 TS -7.64999 63.1075 main 1515 1501 P___________P_ SH021992 -7.64999 63.1075 17 -1 -7.64999 63.1075 TC 17 2 243
1991285S08064 1992 78 SI MM NOT_NAMED 1991-10-12 06:00:00 TS -7.70000 63.0000 main 1501 1496 O___________O_ jtwc_sh SH021992 -7.70000 63.0000 20 -1 -7.70000 63.0000 TC 20 3 259
1991285S08064 1992 78 SI MM NOT_NAMED 1991-10-12 09:00:00 TS -7.70001 62.8500 main 1496 1489 P___________P_ SH021992 -7.70001 62.8500 20 -1 -7.70001 62.8500 TC 20 3 270
1991285S08064 1992 78 SI MM NOT_NAMED 1991-10-12 12:00:00 TS -7.70000 62.7000 main 1489 1485 O___________O_ jtwc_sh SH021992 -7.70000 62.7000 20 -1 -7.70000 62.7000 TC 20 3 259
1991285S08064 1992 78 SI MM NOT_NAMED 1991-10-12 15:00:00 TS -7.74999 62.5925 main 1485 1470 P___________P_ SH021992 -7.74999 62.5925 20 -1 -7.74999 62.5925 TC 20 2 243
1991285S08064 1992 78 SI MM NOT_NAMED 1991-10-12 18:00:00 TS -7.80000 62.5000 main 1470 1467 O___________O_ jtwc_sh SH021992 -7.80000 62.5000 20 -1 -7.80000 62.5000 TC 20 2 255
1991285S08064 1992 78 SI MM NOT_NAMED 1991-10-12 21:00:00 TS -7.79999 62.4075 main 1467 1463 P___________P_ SH021992 -7.79999 62.4075 20 -1 -7.79999 62.4075 TC 20 2 270
1991285S08064 1992 78 SI MM NOT_NAMED 1991-10-13 00:00:00 TS -7.80000 62.3000 main 1463 1459 O___________O_ jtwc_sh SH021992 -7.80000 62.3000 20 -1 -7.80000 62.3000 TC 20 3 262
1991285S08064 1992 78 SI MM NOT_NAMED 1991-10-13 03:00:00 TS -7.83500 62.1575 main 1459 1441 P___________P_ SH021992 -7.83500 62.1575 20 -1 -7.83500 62.1575 TC 20 3 251
1991285S08064 1992 78 SI MM NOT_NAMED 1991-10-13 06:00:00 TS -7.90000 62.0000 main 1441 1426 O___________O_ jtwc_sh SH021992 -7.90000 62.0000 20 -1 -7.90000 62.0000 TC 20 3 243
1991285S08064 1992 78 SI MM NOT_NAMED 1991-10-13 09:00:00 TS -7.99249 61.8500 main 1426 1402 P___________P_ SH021992 -7.99249 61.8500 20 -1 -7.99249 61.8500 TC 20 4 236
1991285S08064 1992 78 SI MM NOT_NAMED 1991-10-13 12:00:00 TS -8.10000 61.7000 main 1402 1387 O___________O_ jtwc_sh SH021992 -8.10000 61.7000 20 -1 -8.10000 61.7000 TC 20 4 236
1991285S08064 1992 78 SI MM NOT_NAMED 1991-10-13 15:00:00 TS -8.19249 61.5575 main 1387 1362 P___________P_ SH021992 -8.19249 61.5575 20 -1 -8.19249 61.5575 TC 20 4 236
1991285S08064 1992 78 SI MM NOT_NAMED 1991-10-13 18:00:00 TS -8.30000 61.4000 main 1362 1338 O___________O_ jtwc_sh SH021992 -8.30000 61.4000 20 -1 -8.30000 61.4000 TC 20 4 233
1991285S08064 1992 78 SI MM NOT_NAMED 1991-10-13 21:00:00 TS -8.44999 61.2150 main 1338 1309 P___________P_ SH021992 -8.44999 61.2150 22 -1 -8.44999 61.2150 TC 22 5 233
1991285S08064 1992 78 SI MM NOT_NAMED 1991-10-14 00:00:00 TS -8.60000 61.0000 main 1309 1284 O___________O_ jtwc_sh SH021992 -8.60000 61.0000 25 -1 -8.60000 61.0000 TC 25 5 241
1991285S08064 1992 78 SI MM NOT_NAMED 1991-10-14 03:00:00 TS -8.70000 60.7575 main 1284 1254 P___________P_ SH021992 -8.70000 60.7575 25 -1 -8.70000 60.7575 TC 25 5 255
1991285S08064 1992 78 SI MM NOT_NAMED 1991-10-14 06:00:00 TS -8.73333 60.4778 20 1005 reunion main 1254 1219 O____O______O_ jtwc_sh SH021992 -8.80000 60.5000 25 -1 -8.20000 60.3000 2 20 1005 9.90000 1.50000 -8.80000 60.5000 TC 25 5 255
1991285S08064 1992 78 SI MM NOT_NAMED 1991-10-14 09:00:00 TS -8.84248 60.2245 main 1219 1190 P____P______P_ SH021992 -8.94997 60.2575 25 -1 -8.41253 60.0926 2 20 1005 -8.94997 60.2575 TC 25 6 245
1991285S08064 1992 78 SI MM NOT_NAMED 1991-10-14 12:00:00 TS -8.96364 59.9727 20 1005 reunion main 1190 1160 O____O______O_ jtwc_sh SH021992 -9.10000 60.0000 25 -1 -8.60000 59.9000 2 20 1005 9.90000 1.50000 -9.10000 60.0000 TC 25 6 247
1991285S08064 1992 78 SI MM NOT_NAMED 1991-10-14 15:00:00 TS -9.05500 59.7116 main 1155 1131 P____P______P_ SH021992 -9.20751 59.7000 25 -1 -8.74999 59.7350 2 20 1005 -9.20751 59.7000 TC 25 5 248
1991285S08064 1992 78 SI MM NOT_NAMED 1991-10-14 18:00:00 TS -9.16667 59.4667 20 1005 reunion main 1131 1106 O____O______O_ jtwc_sh SH021992 -9.30000 59.4000 25 -1 -8.90000 59.6000 2 20 1005 9.90000 1.50000 -9.30000 59.4000 TC 25 5 241
1991285S08064 1992 78 SI MM NOT_NAMED 1991-10-14 21:00:00 TS -9.30246 59.2642 main 1106 1081 P____P______P_ SH021992 -9.40745 59.1500 25 -1 -9.09249 59.4925 2 20 1005 -9.40745 59.1500 TC 25 5 236
1991285S08064 1992 78 SI MM NOT_NAMED 1991-10-15 00:00:00 TS -9.43333 59.0667 20 1005 reunion main 1081 1057 O____O______O_ jtwc_sh SH021992 -9.50000 58.9000 25 -1 -9.30000 59.4000 2 20 1005 9.90000 1.50000 -9.50000 58.9000 TC 25 5 242
1991285S08064 1992 78 SI MM NOT_NAMED 1991-10-15 03:00:00 TS -9.52833 58.8383 main 1047 1022 P____P______P_ SH021992 -9.54251 58.5999 25 -1 -9.49998 59.3150 2 20 1005 -9.54251 58.5999 TC 25 5 247
1991285S08064 1992 78 SI MM NOT_NAMED 1991-10-15 06:00:00 TS -9.63333 58.6000 20 1005 reunion main 1022 993 O____O______O_ jtwc_sh SH021992 -9.60000 58.3000 25 -1 -9.70000 59.2000 2 20 1005 9.90000 1.50000 -9.60000 58.3000 TC 25 5 241
1991285S08064 1992 78 SI MM NOT_NAMED 1991-10-15 09:00:00 TS -9.78747 58.3692 main 993 955 P____P______P_ SH021992 -9.73496 58.0425 25 -1 -9.89250 59.0225 2 20 1003 -9.73496 58.0425 TC 25 6 234
1991285S08064 1992 78 SI MM NOT_NAMED 1991-10-15 12:00:00 TS -9.96667 58.1333 20 1002 reunion main 955 930 O____O______O_ jtwc_sh SH021992 -9.90000 57.8000 25 -1 -10.1000 58.8000 2 20 1002 9.90000 2.00000 -9.90000 57.8000 TC 25 6 233
1991285S08064 1992 78 SI MM NOT_NAMED 1991-10-15 15:00:00 TS -10.1475 57.8833 main 930 891 P____P______P_ SH021992 -10.0500 57.5425 25 -1 -10.3425 58.5650 2 20 1002 -10.0500 57.5425 TC 25 6 233
1991285S08064 1992 78 SI MM NOT_NAMED 1991-10-15 18:00:00 TS -10.3333 57.6333 20 1002 reunion main 891 863 O____O______O_ jtwc_sh SH021992 -10.2000 57.3000 25 -1 -10.6000 58.3000 2 20 1002 9.90000 2.00000 -10.2000 57.3000 TC 25 6 232
1991285S08064 1992 78 SI MM NOT_NAMED 1991-10-15 21:00:00 TS -10.5166 57.4075 main 863 835 P____P______P_ SH021992 -10.3425 57.0999 25 -1 -10.8649 58.0225 2 22 1001 -10.3425 57.0999 TC 25 6 231
1991285S08064 1992 78 SI MM NOT_NAMED 1991-10-16 00:00:00 TS -10.7000 57.1667 24 1000 reunion main 835 797 O____O______O_ jtwc_sh SH021992 -10.5000 56.9000 25 -1 -11.1000 57.7000 2 24 1000 9.90000 2.00000 -10.5000 56.9000 TC 25 6 234
1991285S08064 1992 78 SI MM NOT_NAMED 1991-10-16 03:00:00 TS -10.8958 56.8817 main 797 759 P____P______P_ SH021992 -10.7000 56.6650 25 -1 -11.2875 57.3150 2 24 1000 -10.7000 56.6650 TC 25 7 238
1991285S08064 1992 78 SI MM NOT_NAMED 1991-10-16 06:00:00 TS -11.0667 56.5667 24 1000 reunion main 759 724 O____O______O_ jtwc_sh SH021992 -10.9000 56.4000 25 -1 -11.4000 56.9000 2 24 1000 9.90000 2.00000 -10.9000 56.4000 TC 25 7 245
1991285S08064 1992 78 SI MM NOT_NAMED 1991-10-16 09:00:00 TS -11.1916 56.2383 main 714 679 P____P______P_ SH021992 -11.0725 56.1075 27 -1 -11.4299 56.4999 2 24 1000 -11.0725 56.1075 TC 27 7 253
1991285S08064 1992 78 SI MM NOT_NAMED 1991-10-16 12:00:00 TS -11.2667 55.9000 24 1000 reunion main 679 648 O____O______O_ jtwc_sh SH021992 -11.2000 55.8000 30 -1 -11.4000 56.1000 2 24 1000 9.90000 2.00000 -11.2000 55.8000 TC 30 7 261
1991285S08064 1992 78 SI MM NOT_NAMED 1991-10-16 15:00:00 TS -11.2983 55.5716 main 648 617 P____P______P_ SH021992 -11.2649 55.5074 30 -1 -11.3649 55.7000 2 26 998 -11.2649 55.5074 TC 30 7 267
1991285S08064 1992 78 SI MM NOT_NAMED 1991-10-16 18:00:00 TS -11.3000 55.2333 28 997 reunion main 607 576 O____O______O_ jtwc_sh SH021992 -11.3000 55.2000 30 -1 -11.3000 55.3000 2 28 997 9.90000 2.50000 -11.3000 55.2000 TC 30 7 269
1991285S08064 1992 78 SI MM NOT_NAMED 1991-10-16 21:00:00 TS -11.3050 54.8617 main 576 535 P____P______P_ SH021992 -11.3575 54.8500 30 -1 -11.2000 54.8850 2 28 997 -11.3575 54.8500 TC 30 7 270
1991285S08064 1992 78 SI MM NOT_NAMED 1991-10-17 00:00:00 TS -11.3000 54.5000 28 997 reunion main 535 504 O____O______O_ jtwc_sh SH021992 -11.4000 54.5000 30 -1 -11.1000 54.5000 2 28 997 9.90000 2.50000 -11.4000 54.5000 TC 30 7 272
1991285S08064 1992 78 SI MM NOT_NAMED 1991-10-17 03:00:00 TS -11.2833 54.1825 main 504 474 P____P______P_ SH021992 -11.4075 54.1850 30 -1 -11.0349 54.1775 2 28 997 -11.4075 54.1850 TC 30 6 273
1991285S08064 1992 78 SI MM NOT_NAMED 1991-10-17 06:00:00 TS -11.2667 53.9000 28 997 reunion main 474 455 O____O______O_ jtwc_sh SH021992 -11.4000 53.9000 30 -1 -11.0000 53.9000 2 28 997 9.90000 2.50000 -11.4000 53.9000 TC 30 5 272
1991285S08064 1992 78 SI MM NOT_NAMED 1991-10-17 09:00:00 TS -11.2691 53.6425 main 445 425 P____P______P_ SH021992 -11.4075 53.6425 30 -1 -10.9925 53.6425 2 28 997 -11.4075 53.6425 TC 30 5 270
1991285S08064 1992 78 SI MM NOT_NAMED 1991-10-17 12:00:00 TS -11.2667 53.4000 28 997 reunion main 425 406 O____O______O_ jtwc_sh SH021992 -11.4000 53.4000 30 -1 -11.0000 53.4000 2 28 997 9.90000 2.50000 -11.4000 53.4000 TC 30 5 273
1991285S08064 1992 78 SI MM NOT_NAMED 1991-10-17 15:00:00 TS -11.2433 53.1525 main 411 383 P____P______P_ SH021992 -11.3650 53.1500 30 -1 -11.0000 53.1575 2 28 997 -11.3650 53.1500 TC 30 5 278
1991285S08064 1992 78 SI MM NOT_NAMED 1991-10-17 18:00:00 TS -11.2000 52.9000 28 997 reunion main 383 365 O____O______O_ jtwc_sh SH021992 -11.3000 52.9000 30 -1 -11.0000 52.9000 2 28 997 9.90000 2.50000 -11.3000 52.9000 TC 30 5 282
1991285S08064 1992 78 SI MM NOT_NAMED 1991-10-17 21:00:00 TS -11.1383 52.6358 main 362 345 P____P______P_ SH021992 -11.2000 52.6500 32 -1 -11.0150 52.6075 2 28 997 -11.2000 52.6500 TC 32 5 284
1991285S08064 1992 78 SI MM NOT_NAMED 1991-10-18 00:00:00 TS -11.0667 52.3667 28 997 reunion main 345 323 O____O______O_ jtwc_sh SH021992 -11.1000 52.4000 35 0 -11.0000 52.3000 2 28 997 9.90000 2.50000 -11.1000 52.4000 TC 35 6 285
1991285S08064 1992 78 SI MM NOT_NAMED 1991-10-18 03:00:00 TS -11.0000 52.0925 main 323 299 P____P______P_ SH021992 -11.0425 52.1425 35 0 -10.9150 51.9925 2 28 997 -11.0425 52.1425 TC 35 5 284
1991285S08064 1992 78 SI MM NOT_NAMED 1991-10-18 06:00:00 TS -10.9333 51.8333 28 997 reunion main 299 280 O____O______O_ jtwc_sh SH021992 -11.0000 51.9000 35 0 -10.8000 51.7000 2 28 997 9.90000 2.50000 -11.0000 51.9000 TC 35 5 287
1991285S08064 1992 78 SI MM NOT_NAMED 1991-10-18 09:00:00 TS -10.8566 51.6067 main 280 268 P____P______P_ SH021992 -10.9425 51.6925 35 0 -10.6850 51.4350 2 28 997 -10.9425 51.6925 TC 35 4 287
1991285S08064 1992 78 SI MM NOT_NAMED 1991-10-18 12:00:00 TS -10.8000 51.4000 28 997 reunion main 268 251 O____O______O_ jtwc_sh SH021992 -10.9000 51.5000 35 0 -10.6000 51.2000 2 28 997 9.90000 2.50000 -10.9000 51.5000 TC 35 4 280
1991285S08064 1992 78 SI MM NOT_NAMED 1991-10-18 15:00:00 TS -10.7875 51.1950 main 251 234 P____P______P_ SH021992 -10.8925 51.3000 35 0 -10.5775 50.9850 2 28 997 -10.8925 51.3000 TC 35 4 270
1991285S08064 1992 78 SI MM NOT_NAMED 1991-10-18 18:00:00 TS -10.8000 51.0000 28 997 reunion main 234 218 O____O______O_ jtwc_sh SH021992 -10.9000 51.1000 35 0 -10.6000 50.8000 2 28 997 9.90000 2.50000 -10.9000 51.1000 TC 35 4 266
1991285S08064 1992 78 SI MM NOT_NAMED 1991-10-18 21:00:00 TS -10.8167 50.8142 main 218 203 P____P______P_ SH021992 -10.9075 50.9000 35 0 -10.6350 50.6425 2 28 997 -10.9075 50.9000 TC 35 4 265
1991285S08064 1992 78 SI MM NOT_NAMED 1991-10-19 00:00:00 TS -10.8333 50.6333 28 997 reunion main 203 195 O____O______O_ jtwc_sh SH021992 -10.9000 50.7000 35 0 -10.7000 50.5000 2 28 997 9.90000 2.50000 -10.9000 50.7000 TC 35 4 267
1991285S08064 1992 78 SI MM NOT_NAMED 1991-10-19 03:00:00 TS -10.8333 50.4525 main 195 181 P____P______P_ SH021992 -10.8575 50.5000 35 0 -10.7850 50.3575 2 28 997 -10.8575 50.5000 TC 35 4 270
1991285S08064 1992 78 SI MM NOT_NAMED 1991-10-19 06:00:00 TS -10.8333 50.2667 28 997 reunion main 181 160 O____O______O_ jtwc_sh SH021992 -10.8000 50.3000 35 0 -10.9000 50.2000 2 28 997 9.90000 2.50000 -10.8000 50.3000 TC 35 4 265
1991285S08064 1992 78 SI MM NOT_NAMED 1991-10-19 09:00:00 TS -10.8675 50.0592 main 160 149 P____P______P_ SH021992 -10.7575 50.0850 35 0 -11.0875 50.0076 2 26 998 -10.7575 50.0850 TC 35 4 265
1991285S08064 1992 78 SI MM NOT_NAMED 1991-10-19 12:00:00 TS -10.8667 49.8667 24 1000 reunion main 149 145 O____O______O_ jtwc_sh SH021992 -10.7000 49.9000 35 0 -11.2000 49.8000 2 24 1000 9.90000 2.00000 -10.7000 49.9000 TC 35 3 286
1991285S08064 1992 78 SI MM NOT_NAMED 1991-10-19 15:00:00 TS -10.7725 49.7208 main 151 151 P____P______P_ SH021992 -10.6075 49.7850 32 -1 -11.1025 49.5924 2 24 1000 -10.6075 49.7850 TC 32 4 312
1991285S08064 1992 78 SI MM NOT_NAMED 1991-10-19 18:00:00 TS -10.6333 49.6000 24 1000 reunion main 171 169 O____O______O_ jtwc_sh SH021992 -10.5000 49.7000 30 -1 -10.9000 49.4000 2 24 1000 9.90000 2.00000 -10.5000 49.7000 TC 30 4 318
1991285S08064 1992 78 SI MM NOT_NAMED 1991-10-19 21:00:00 TS -10.5025 49.4758 main 180 179 P____P______P_ SH021992 -10.4075 49.5925 30 -1 -10.6925 49.2425 2 24 1000 -10.4075 49.5925 TC 30 4 319
1991285S08064 1992 78 SI MM NOT_NAMED 1991-10-20 00:00:00 TS -10.3667 49.3667 24 1000 reunion main 190 190 O____O______O_ jtwc_sh SH021992 -10.3000 49.5000 30 -1 -10.5000 49.1000 2 24 1000 9.90000 2.00000 -10.3000 49.5000 TC 30 3 324
1991285S08064 1992 78 SI MM NOT_NAMED 1991-10-20 03:00:00 TS -10.2333 49.2784 main 212 212 P____P______P_ SH021992 -10.1575 49.4425 30 -1 -10.3850 48.9500 2 24 1000 -10.1575 49.4425 TC 30 3 329
1991285S08064 1992 78 SI MM NOT_NAMED 1991-10-20 06:00:00 TS -10.1000 49.2000 24 1000 reunion main 223 223 O____O______O_ jtwc_sh SH021992 -10.0000 49.4000 30 -1 -10.3000 48.8000 2 24 1000 9.90000 2.00000 -10.0000 49.4000 TC 30 3 329
1991285S08064 1992 78 SI MM NOT_NAMED 1991-10-20 09:00:00 TS -9.96167 49.1142 main 235 235 P____P______P_ SH021992 -9.84250 49.3500 30 -1 -10.2000 48.6425 2 24 1000 -9.84250 49.3500 TC 30 3 329
1991285S08064 1992 78 SI MM NOT_NAMED 1991-10-20 12:00:00 TS -9.83333 49.0333 24 1000 reunion main 258 258 O____O______O_ jtwc_sh SH021992 -9.70000 49.3000 30 -1 -10.1000 48.5000 2 24 1000 9.90000 2.00000 -9.70000 49.3000 TC 30 3 327
1991285S08064 1992 78 SI MM NOT_NAMED 1991-10-20 15:00:00 TS -9.72833 48.9642 main 269 269 P____P______P_ SH021992 -9.59250 49.2500 27 -1 -9.99999 48.3925 2 22 1001 -9.59250 49.2500 TC 27 2 326
1991285S08064 1992 78 SI MM NOT_NAMED 1991-10-20 18:00:00 TS -9.63333 48.9000 20 1003 reunion main 281 281 O____O______O_ jtwc_sh SH021992 -9.50000 49.2000 25 -1 -9.90000 48.3000 2 20 1003 9.90000 1.50000 -9.50000 49.2000 TC 25 2 330
1991285S08064 1992 78 SI MM NOT_NAMED 1991-10-20 21:00:00 TS -9.52582 48.8433 main 294 294 P____P______P_ SH021992 -9.39249 49.1650 25 -1 -9.79250 48.2000 2 20 1004 -9.39249 49.1650 TC 25 3 311
1991285S08064 1992 78 SI MM NOT_NAMED 1991-10-21 00:00:00 TS -9.46000 48.7000 20 1005 reunion main 296 296 O____O______O_ jtwc_sh SH021992 -9.30000 49.1000 25 -1 -9.70000 48.1000 2 20 1005 9.90000 1.50000 -9.30000 49.1000 TC 25 4 283
1991285S08064 1992 78 SI MM NOT_NAMED 1991-10-21 03:00:00 TS -9.44501 48.4850 main 311 304 P____P______P_ SH021992 -9.24003 48.9700 25 -1 -9.65000 48.0000 2 20 1005 -9.24003 48.9700 TC 25 5 269
1991285S08064 1992 78 SI MM NOT_NAMED 1991-10-21 06:00:00 TS -9.46667 48.2000 20 1005 reunion main 311 311 O____O______O_ jtwc_sh SH021992 -9.20000 48.8000 25 -1 -9.60000 47.9000 2 20 1005 9.90000 1.50000 -9.20000 48.8000 TC 25 7 264
1991285S08064 1992 78 SI MM NOT_NAMED 1991-10-21 09:00:00 TS -9.51498 47.8150 main 328 328 _____P________ SH021992 -1 -9.51498 47.8150 2 20 1005 TC 5 278
1991285S08064 1992 78 SI MM NOT_NAMED 1991-10-21 12:00:00 TS -9.40000 47.7000 20 1005 reunion main 344 344 _____O________ -1 -9.40000 47.7000 2 20 1005 9.90000 1.50000 4 311
1991285S08064 1992 78 SI MM NOT_NAMED 1991-10-21 15:00:00 TS -9.26499 47.5225 main 364 364 _____P________ -1 -9.26499 47.5225 2 5 307
1991285S08064 1992 78 SI MM NOT_NAMED 1991-10-21 18:00:00 TS -9.10000 47.3000 reunion main 395 395 _____O________ -1 -9.10000 47.3000 6 9.90000 6 309
1991285S08064 1992 78 SI MM NOT_NAMED 1991-10-21 21:00:00 TS -8.90746 47.0725 main 425 425 _____P________ -1 -8.90746 47.0725 6 6 309
1991285S08064 1992 78 SI MM NOT_NAMED 1991-10-22 00:00:00 TS -8.70000 46.8000 reunion main 462 462 _____O________ -1 -8.70000 46.8000 6 9.90000 7 305
1991285S08064 1992 78 SI MM NOT_NAMED 1991-10-22 03:00:00 TS -8.49248 46.4725 main 499 499 _____P________ -1 -8.49248 46.4725 6 8 300
1991285S08064 1992 78 SI MM NOT_NAMED 1991-10-22 06:00:00 TS -8.30000 46.1000 reunion main 544 544 _____O________ -1 -8.30000 46.1000 6 9.90000 8 295
1991285S08064 1992 78 SI MM NOT_NAMED 1991-10-22 09:00:00 TS -8.14008 45.7050 main 589 589 _____P________ -1 -8.14008 45.7050 6 8 291
1991285S08064 1992 78 SI MM NOT_NAMED 1991-10-22 12:00:00 TS -8.00000 45.3000 reunion main 598 _____O________ -1 -8.00000 45.3000 6 9.90000 9 289

About IBTrACS Database

This database is a web-friendly format of International Best Track Archive for Climate Stewardship (IBTrACS), a global best track data archive curated by NOAA dating back to 1842.

Updated: 2021-12-06